Time;durP1;ratioP1;P1;durP2;ratioP2;P2;SDS_P1;SDS_P2;PMS_P1;PMS_P2;Temp;Humidity;BMP_temperature;BMP_pressure;BME280_temperature;BME280_humidity;BME280_pressure;Samples;Min_cycle;Max_cycle;Signal;HPM_P1;HPM_P2
2022/07/13 00:00:07;;;;;;;;;;;;;;;20.58;46.94;101803.84;5070745;28;20023;-62
2022/07/13 00:02:33;;;;;;;;;;;;;;;20.58;46.73;101801.19;5068624;28;19925;-61
2022/07/13 00:04:58;;;;;;;;;;;;;;;20.58;47.06;101799.38;5069312;28;19998;-62
2022/07/13 00:07:23;;;;;;;;;;;;;;;20.60;46.67;101800.09;5071438;28;19924;-60
2022/07/13 00:09:48;;;;;;;;;;;;;;;20.61;46.69;101798.25;5070607;28;20360;-62
2022/07/13 00:12:14;;;;;;;;;;;;;;;20.56;46.81;101799.53;5064291;28;20252;-60
2022/07/13 00:14:39;;;;;;;;;;;;;;;20.53;47.17;101796.22;5064147;28;19986;-62
2022/07/13 00:17:04;;;;;;;;;;;;;;;20.50;47.34;101785.78;5071394;28;19935;-62
2022/07/13 00:19:30;;;;;;;;;;;;;;;20.52;47.10;101794.53;5067850;28;20363;-62
2022/07/13 00:21:55;;;;;;;;;;;;;;;20.55;47.10;101784.47;5070750;28;20290;-61
2022/07/13 00:24:21;;;;;;;;;;;;;;;20.57;47.27;101781.63;5072191;28;20291;-60
2022/07/13 00:26:46;;;;;;;;;;;;;;;20.59;47.49;101779.69;5067854;28;19928;-62
2022/07/13 00:29:11;;;;;;;;;;;;;;;20.56;47.68;101774.59;5063713;28;20383;-63
2022/07/13 00:31:37;;;;;;;;;;;;;;;20.55;47.47;101773.75;5064937;28;19936;-61
2022/07/13 00:34:02;;;;;;;;;;;;;;;20.57;47.41;101778.97;5064405;28;19928;-60
2022/07/13 00:36:27;;;;;;;;;;;;;;;20.58;47.67;101778.00;5069293;28;20013;-62
2022/07/13 00:38:52;;;;;;;;;;;;;;;20.58;47.84;101774.44;5064034;28;20309;-63
2022/07/13 00:41:18;;;;;;;;;;;;;;;20.58;47.51;101771.78;5067222;28;19932;-62
2022/07/13 00:43:43;;;;;;;;;;;;;;;20.58;47.64;101767.28;5067855;28;20012;-60
2022/07/13 00:46:09;;;;;;;;;;;;;;;20.57;47.64;101768.28;5066066;28;20240;-59
2022/07/13 00:48:34;;;;;;;;;;;;;;;20.58;47.76;101769.97;5065485;28;19931;-61
2022/07/13 00:50:59;;;;;;;;;;;;;;;20.53;47.52;101758.81;5068797;28;19932;-61
2022/07/13 00:53:25;;;;;;;;;;;;;;;20.49;47.93;101762.72;5068466;28;19924;-59
2022/07/13 00:55:50;;;;;;;;;;;;;;;20.45;47.88;101762.13;5068838;28;19928;-60
2022/07/13 00:58:15;;;;;;;;;;;;;;;20.40;48.00;101759.84;5068042;28;19928;-62
2022/07/13 01:00:41;;;;;;;;;;;;;;;20.37;48.14;101762.75;5065052;28;19931;-61
2022/07/13 01:03:06;;;;;;;;;;;;;;;20.36;48.28;101762.91;5071658;28;19927;-59
2022/07/13 01:05:31;;;;;;;;;;;;;;;20.35;48.26;101761.22;5066868;28;20399;-61
2022/07/13 01:07:57;;;;;;;;;;;;;;;20.34;48.59;101760.38;5070078;28;20015;-60
2022/07/13 01:10:23;;;;;;;;;;;;;;;20.35;48.44;101767.38;5064180;28;19923;-61
2022/07/13 01:12:48;;;;;;;;;;;;;;;20.35;48.59;101761.22;5064109;28;20290;-60
2022/07/13 01:15:15;;;;;;;;;;;;;;;20.36;48.36;101765.56;5069010;28;20007;-62
2022/07/13 01:17:40;;;;;;;;;;;;;;;20.37;48.28;101756.59;5065510;28;19924;-58
2022/07/13 01:20:07;;;;;;;;;;;;;;;20.37;48.25;101754.75;5065956;28;19950;-61
2022/07/13 01:22:44;;;;;;;;;;;;;;;20.38;48.43;101759.13;5069161;28;19986;-62
2022/07/13 01:25:10;;;;;;;;;;;;;;;20.40;48.63;101748.31;5064604;28;19921;-62
2022/07/13 01:27:36;;;;;;;;;;;;;;;20.43;48.81;101741.84;5068277;28;20305;-62
2022/07/13 01:30:03;;;;;;;;;;;;;;;20.46;48.52;101744.28;5066814;28;19921;-59
2022/07/13 01:32:29;;;;;;;;;;;;;;;20.47;48.30;101748.66;5064913;28;19916;-59
2022/07/13 01:34:54;;;;;;;;;;;;;;;20.47;48.48;101733.44;5062425;28;19962;-58
2022/07/13 01:37:19;;;;;;;;;;;;;;;20.48;48.46;101728.97;5065567;28;19920;-60
2022/07/13 01:39:44;;;;;;;;;;;;;;;20.50;48.63;101729.66;5059764;28;20059;-59
2022/07/13 01:42:10;;;;;;;;;;;;;;;20.51;48.61;101734.03;5063997;28;19921;-59
2022/07/13 01:44:35;;;;;;;;;;;;;;;20.52;48.87;101727.69;5064769;28;19994;-61
2022/07/13 01:47:07;;;;;;;;;;;;;;;20.53;48.72;101726.72;5063889;28;19921;-62
2022/07/13 01:49:32;;;;;;;;;;;;;;;20.54;48.89;101728.41;5062996;28;20008;-59
2022/07/13 01:51:58;;;;;;;;;;;;;;;20.56;48.73;101726.47;5068065;28;20003;-60
2022/07/13 01:54:23;;;;;;;;;;;;;;;20.56;49.00;101721.13;5063521;28;19924;-61
2022/07/13 01:56:48;;;;;;;;;;;;;;;20.55;48.83;101728.31;5065036;28;20346;-60
2022/07/13 01:59:13;;;;;;;;;;;;;;;20.54;48.93;101720.41;5064800;28;19924;-59
2022/07/13 02:01:39;;;;;;;;;;;;;;;20.53;48.83;101716.91;5064819;28;19924;-63
2022/07/13 02:04:04;;;;;;;;;;;;;;;20.51;49.06;101707.28;5069137;28;19932;-60
2022/07/13 02:06:29;;;;;;;;;;;;;;;20.51;49.06;101701.94;5061641;28;19927;-62
2022/07/13 02:08:55;;;;;;;;;;;;;;;20.53;49.23;101716.91;5064653;28;20520;-60
2022/07/13 02:11:20;;;;;;;;;;;;;;;20.54;48.93;101717.72;5063215;28;19968;-61
2022/07/13 02:13:46;;;;;;;;;;;;;;;20.51;49.29;101707.28;5068156;28;19921;-59
2022/07/13 02:16:11;;;;;;;;;;;;;;;20.49;49.49;101703.94;5067270;28;19967;-62
2022/07/13 02:18:37;;;;;;;;;;;;;;;20.49;49.33;101709.28;5068782;28;19964;-62
2022/07/13 02:21:02;;;;;;;;;;;;;;;20.48;49.34;101708.41;5065185;28;20341;-61
2022/07/13 02:23:28;;;;;;;;;;;;;;;20.48;49.65;101708.41;5067550;28;19924;-63
2022/07/13 02:25:53;;;;;;;;;;;;;;;20.49;49.64;101711.94;5059119;28;20011;-61
2022/07/13 02:28:18;;;;;;;;;;;;;;;20.49;49.74;101714.63;5065899;28;19970;-62
2022/07/13 02:30:44;;;;;;;;;;;;;;;20.50;49.74;101721.63;5067435;28;19927;-60
2022/07/13 02:33:09;;;;;;;;;;;;;;;20.47;49.90;101729.94;5064006;28;20329;-62
2022/07/13 02:35:34;;;;;;;;;;;;;;;20.45;50.16;101721.19;5062163;28;19924;-59
2022/07/13 02:38:00;;;;;;;;;;;;;;;20.42;50.26;101719.59;5067335;28;19921;-62
2022/07/13 02:40:25;;;;;;;;;;;;;;;20.39;50.02;101718.06;5061526;28;19966;-63
2022/07/13 02:42:50;;;;;;;;;;;;;;;20.37;50.04;101717.31;5064296;28;19924;-62
2022/07/13 02:45:16;;;;;;;;;;;;;;;20.35;50.44;101718.44;5066663;28;20289;-63
2022/07/13 02:47:41;;;;;;;;;;;;;;;20.34;50.24;101711.41;5064146;28;19963;-61
2022/07/13 02:50:06;;;;;;;;;;;;;;;20.32;50.31;101714.22;5064138;28;19970;-59
2022/07/13 02:52:32;;;;;;;;;;;;;;;20.32;50.18;101714.22;5068541;28;20028;-62
2022/07/13 02:54:58;;;;;;;;;;;;;;;20.33;50.32;101715.03;5070429;28;19965;-63
2022/07/13 02:57:24;;;;;;;;;;;;;;;20.31;50.69;101715.19;5067717;28;20365;-64
2022/07/13 02:59:49;;;;;;;;;;;;;;;20.31;50.75;101717.84;5072868;28;20003;-59
2022/07/13 03:02:15;;;;;;;;;;;;;;;20.31;50.60;101712.53;5070793;28;19935;-62
2022/07/13 03:04:41;;;;;;;;;;;;;;;20.32;50.74;101718.69;5069695;28;20334;-61
2022/07/13 03:07:06;;;;;;;;;;;;;;;20.31;50.94;101707.16;5075789;28;20386;-58
2022/07/13 03:09:31;;;;;;;;;;;;;;;20.32;50.90;101711.53;5067898;28;20015;-62
2022/07/13 03:11:57;;;;;;;;;;;;;;;20.33;51.03;101707.03;5067219;28;19916;-62
2022/07/13 03:14:22;;;;;;;;;;;;;;;20.35;50.88;101705.09;5067845;28;19924;-59
2022/07/13 03:16:48;;;;;;;;;;;;;;;20.37;51.05;101700.47;5070995;28;20355;-62
2022/07/13 03:19:14;;;;;;;;;;;;;;;20.36;51.22;101704.94;5071725;28;19920;-60
2022/07/13 03:21:39;;;;;;;;;;;;;;;20.35;50.91;101694.38;5069440;28;20340;-60
2022/07/13 03:24:04;;;;;;;;;;;;;;;20.32;51.16;101687.50;5065065;28;20283;-62
2022/07/13 03:26:29;;;;;;;;;;;;;;;20.33;51.43;101697.19;5078198;28;19920;-59
2022/07/13 03:28:55;;;;;;;;;;;;;;;20.33;51.37;101683.84;5074256;28;20291;-61
2022/07/13 03:31:20;;;;;;;;;;;;;;;20.33;51.28;101682.97;5068022;28;19980;-59
2022/07/13 03:33:46;;;;;;;;;;;;;;;20.32;51.24;101690.16;5069736;28;20402;-59
2022/07/13 03:36:12;;;;;;;;;;;;;;;20.32;51.20;101689.28;5068254;28;19916;-62
2022/07/13 03:38:37;;;;;;;;;;;;;;;20.31;51.39;101675.09;5070014;28;19993;-60
2022/07/13 03:41:03;;;;;;;;;;;;;;;20.33;51.51;101680.31;5072883;28;19972;-58
2022/07/13 03:43:28;;;;;;;;;;;;;;;20.35;51.47;101681.03;5066837;28;20045;-59
2022/07/13 03:45:54;;;;;;;;;;;;;;;20.36;51.69;101677.38;5072941;28;19912;-61
2022/07/13 03:48:19;;;;;;;;;;;;;;;20.36;51.56;101680.88;5071265;28;20303;-61
2022/07/13 03:50:45;;;;;;;;;;;;;;;20.39;51.52;101677.97;5071114;28;19916;-61
2022/07/13 03:53:11;;;;;;;;;;;;;;;20.38;51.71;101673.59;5070669;28;19920;-60
2022/07/13 03:55:37;;;;;;;;;;;;;;;20.39;51.54;101674.44;5073078;28;19920;-59
2022/07/13 03:58:04;;;;;;;;;;;;;;;20.41;51.81;101676.00;5069456;28;20303;-58
2022/07/13 04:00:29;;;;;;;;;;;;;;;20.43;51.50;101672.34;5070767;28;19912;-62
2022/07/13 04:02:56;;;;;;;;;;;;;;;20.44;51.57;101668.72;5066018;28;20013;-60
2022/07/13 04:05:21;;;;;;;;;;;;;;;20.45;51.94;101660.53;5066554;28;19964;-58
2022/07/13 04:07:47;;;;;;;;;;;;;;;20.46;51.94;101662.25;5070583;28;19948;-59
2022/07/13 04:10:12;;;;;;;;;;;;;;;20.49;51.81;101671.84;5063638;28;19924;-58
2022/07/13 04:12:40;;;;;;;;;;;;;;;20.50;51.70;101665.50;5066776;28;20095;-60
2022/07/13 04:15:05;;;;;;;;;;;;;;;20.50;52.03;101666.34;5072150;28;20389;-62
2022/07/13 04:17:31;;;;;;;;;;;;;;;20.51;51.73;101661.84;5072647;28;20388;-61
2022/07/13 04:19:56;;;;;;;;;;;;;;;20.52;51.75;101663.53;5065790;28;19920;-62
2022/07/13 04:22:21;;;;;;;;;;;;;;;20.51;51.71;101653.81;5065892;28;20256;-62
2022/07/13 04:24:47;;;;;;;;;;;;;;;20.50;51.94;101657.47;5066002;28;19924;-58
2022/07/13 04:27:13;;;;;;;;;;;;;;;20.52;51.96;101663.53;5061290;28;19928;-58
2022/07/13 04:29:39;;;;;;;;;;;;;;;20.54;51.75;101669.59;5071265;28;19927;-61
2022/07/13 04:32:04;;;;;;;;;;;;;;;20.53;51.93;101668.78;5069936;28;19916;-60
2022/07/13 04:34:29;;;;;;;;;;;;;;;20.51;51.93;101661.84;5074549;28;19966;-58
2022/07/13 04:36:55;;;;;;;;;;;;;;;20.50;51.80;101668.16;5070421;28;20291;-61
2022/07/13 04:39:21;;;;;;;;;;;;;;;20.47;51.88;101677.31;5069434;28;19932;-60
2022/07/13 04:41:46;;;;;;;;;;;;;;;20.47;51.93;101665.78;5066094;28;20002;-59
2022/07/13 04:44:12;;;;;;;;;;;;;;;20.50;52.04;101666.34;5069619;28;20383;-59
2022/07/13 04:46:37;;;;;;;;;;;;;;;20.54;51.85;101664.25;5063893;28;20375;-59
2022/07/13 04:49:02;;;;;;;;;;;;;;;20.59;51.97;101662.03;5060313;28;20044;-64
2022/07/13 04:51:28;;;;;;;;;;;;;;;20.66;51.75;101662.38;5069385;28;19938;-61
2022/07/13 04:53:53;;;;;;;;;;;;;;;20.71;52.10;101657.47;5063765;28;19916;-61
2022/07/13 04:56:18;;;;;;;;;;;;;;;20.75;51.94;101648.22;5071973;28;19924;-58
2022/07/13 04:58:44;;;;;;;;;;;;;;;20.80;52.30;101653.16;5066607;28;20341;-61
2022/07/13 05:01:09;;;;;;;;;;;;;;;20.85;52.08;101656.28;5061445;28;19967;-61
2022/07/13 05:03:36;;;;;;;;;;;;;;;20.89;52.18;101652.38;5069341;28;19956;-60
2022/07/13 05:06:02;;;;;;;;;;;;;;;20.94;51.92;101654.63;5069654;28;19924;-58
2022/07/13 05:08:27;;;;;;;;;;;;;;;20.98;51.91;101646.19;5066815;28;19962;-62
2022/07/13 05:10:53;;;;;;;;;;;;;;;21.02;51.78;101652.97;5062972;28;20371;-62
2022/07/13 05:13:18;;;;;;;;;;;;;;;21.05;52.17;101653.69;5071553;28;19924;-60
2022/07/13 05:15:45;;;;;;;;;;;;;;;21.05;52.13;101651.84;5070417;28;19970;-57
2022/07/13 05:18:10;;;;;;;;;;;;;;;21.07;52.12;101649.06;5065901;28;19926;-59
2022/07/13 05:20:35;;;;;;;;;;;;;;;21.08;51.72;101653.44;5063645;28;20047;-64
2022/07/13 05:23:01;;;;;;;;;;;;;;;21.11;51.87;101658.50;5058261;28;19920;-63
2022/07/13 05:25:26;;;;;;;;;;;;;;;21.12;51.54;101647.66;5069936;28;20042;-59
2022/07/13 05:27:51;;;;;;;;;;;;;;;21.16;51.37;101642.88;5071474;28;19935;-58
2022/07/13 05:30:17;;;;;;;;;;;;;;;21.19;51.53;101642.63;5066186;28;19928;-59
2022/07/13 05:32:42;;;;;;;;;;;;;;;21.24;51.16;101650.22;5069063;28;20011;-59
2022/07/13 05:35:08;;;;;;;;;;;;;;;21.27;51.21;101644.63;5068578;28;19924;-59
2022/07/13 05:37:33;;;;;;;;;;;;;;;21.30;51.17;101655.88;5065576;28;19924;-61
2022/07/13 05:39:59;;;;;;;;;;;;;;;21.36;50.91;101656.31;5063622;28;20448;-60
2022/07/13 05:42:25;;;;;;;;;;;;;;;21.41;51.10;101662.09;5066983;28;19930;-59
2022/07/13 05:44:51;;;;;;;;;;;;;;;21.44;50.66;101662.69;5065403;28;20294;-59
2022/07/13 05:47:16;;;;;;;;;;;;;;;21.49;50.82;101656.91;5066676;28;20454;-60
2022/07/13 05:49:41;;;;;;;;;;;;;;;21.53;50.74;101655.66;5068314;28;19920;-61
2022/07/13 05:52:07;;;;;;;;;;;;;;;21.60;50.28;101650.63;5054721;28;19966;-62
2022/07/13 05:54:32;;;;;;;;;;;;;;;21.68;50.17;101649.94;5055794;28;19978;-63
2022/07/13 05:56:57;;;;;;;;;;;;;;;21.75;49.79;101659.94;5059402;28;19931;-62
2022/07/13 05:59:23;;;;;;;;;;;;;;;21.83;49.62;101655.69;5057155;28;19936;-58
2022/07/13 06:01:48;;;;;;;;;;;;;;;21.89;49.45;101650.63;5058052;28;19925;-58
2022/07/13 06:04:14;;;;;;;;;;;;;;;21.97;49.14;101651.78;5059328;28;19923;-62
2022/07/13 06:06:40;;;;;;;;;;;;;;;22.04;48.54;101651.06;5062651;28;19924;-59
2022/07/13 06:09:05;;;;;;;;;;;;;;;22.10;48.46;101646.97;5068422;28;19970;-59
2022/07/13 06:11:30;;;;;;;;;;;;;;;22.14;48.45;101647.50;5066962;28;20318;-58
2022/07/13 06:13:56;;;;;;;;;;;;;;;22.16;48.45;101657.09;5068399;28;20024;-56
2022/07/13 06:16:21;;;;;;;;;;;;;;;22.20;48.02;101658.50;5059545;28;19947;-57
2022/07/13 06:18:46;;;;;;;;;;;;;;;22.21;47.80;101654.00;5059983;28;19924;-62
2022/07/13 06:21:11;;;;;;;;;;;;;;;22.22;47.97;101661.06;5059744;28;20329;-58
2022/07/13 06:23:37;;;;;;;;;;;;;;;22.22;47.91;101651.16;5075032;28;20411;-60
2022/07/13 06:26:03;;;;;;;;;;;;;;;22.23;47.86;101650.19;5071016;28;20386;-61
2022/07/13 06:28:28;;;;;;;;;;;;;;;22.27;47.60;101663.31;5071639;28;20015;-57
2022/07/13 06:30:53;;;;;;;;;;;;;;;22.30;47.68;101663.03;5067053;28;19959;-61
2022/07/13 06:33:19;;;;;;;;;;;;;;;22.34;47.72;101661.72;5070544;28;19959;-57
2022/07/13 06:35:44;;;;;;;;;;;;;;;22.38;47.48;101665.81;5066828;28;20015;-60
2022/07/13 06:38:09;;;;;;;;;;;;;;;22.43;47.17;101658.22;5069897;28;20015;-57
2022/07/13 06:40:35;;;;;;;;;;;;;;;22.46;47.21;101663.28;5067752;28;20016;-60
2022/07/13 06:43:00;;;;;;;;;;;;;;;22.52;47.06;101656.53;5065904;28;19930;-58
2022/07/13 06:45:25;;;;;;;;;;;;;;;22.54;47.12;101657.19;5071196;28;19918;-61
2022/07/13 06:47:51;;;;;;;;;;;;;;;22.55;46.83;101650.00;5063060;28;19924;-60
2022/07/13 06:50:17;;;;;;;;;;;;;;;22.58;46.91;101658.59;5067343;28;20338;-58
2022/07/13 06:52:44;;;;;;;;;;;;;;;22.61;46.80;101661.00;5059924;28;19916;-58
2022/07/13 06:55:10;;;;;;;;;;;;;;;22.67;46.47;101657.75;5064801;28;19920;-58
2022/07/13 06:57:35;;;;;;;;;;;;;;;22.72;46.56;101649.25;5064339;28;19921;-57
2022/07/13 07:00:01;;;;;;;;;;;;;;;22.78;46.50;101656.69;5064171;28;19921;-58
2022/07/13 07:02:26;;;;;;;;;;;;;;;22.84;46.14;101649.88;5065457;28;20015;-60
2022/07/13 07:04:51;;;;;;;;;;;;;;;22.88;45.91;101661.19;5073082;28;19920;-59
2022/07/13 07:07:17;;;;;;;;;;;;;;;22.91;45.77;101655.53;5066887;28;20449;-59
2022/07/13 07:09:42;;;;;;;;;;;;;;;22.94;45.68;101645.34;5059581;28;19921;-59
2022/07/13 07:12:07;;;;;;;;;;;;;;;22.97;45.57;101652.25;5070888;28;20049;-60
2022/07/13 07:14:33;;;;;;;;;;;;;;;22.98;45.45;101641.38;5074385;28;19913;-62
2022/07/13 07:16:59;;;;;;;;;;;;;;;23.00;45.05;101633.16;5045978;28;20070;-62
2022/07/13 07:19:24;;;;;;;;;;;;;;;23.02;45.06;101631.19;5065684;28;19936;-58
2022/07/13 07:21:49;;;;;;;;;;;;;;;23.06;45.15;101629.03;5068746;28;19924;-57
2022/07/13 07:24:15;;;;;;;;;;;;;;;23.09;45.13;101626.06;5066348;28;19920;-59
2022/07/13 07:26:40;;;;;;;;;;;;;;;23.11;44.99;101634.81;5068993;28;19920;-62
2022/07/13 07:29:05;;;;;;;;;;;;;;;23.13;44.76;101630.16;5070577;28;19960;-59
2022/07/13 07:31:30;;;;;;;;;;;;;;;23.15;44.74;101622.75;5068726;28;19931;-61
2022/07/13 07:33:56;;;;;;;;;;;;;;;23.21;44.72;101618.69;5058687;28;20409;-59
2022/07/13 07:36:21;;;;;;;;;;;;;;;23.28;44.71;101625.13;5071360;28;19920;-59
2022/07/13 07:38:47;;;;;;;;;;;;;;;23.35;44.51;101628.06;5071478;28;19921;-62
2022/07/13 07:41:12;;;;;;;;;;;;;;;23.39;44.55;101630.28;5067809;28;20593;-63
2022/07/13 07:43:38;;;;;;;;;;;;;;;23.43;44.37;101629.00;5062538;28;19916;-63
2022/07/13 07:46:04;;;;;;;;;;;;;;;23.48;44.43;101622.31;5075310;28;19922;-63
2022/07/13 07:48:29;;;;;;;;;;;;;;;23.52;44.46;101621.03;5067963;28;19926;-63
2022/07/13 07:50:54;;;;;;;;;;;;;;;23.56;44.06;101622.38;5068394;28;19916;-63
2022/07/13 07:53:20;;;;;;;;;;;;;;;23.57;44.44;101608.81;5064230;28;19921;-62
2022/07/13 07:55:46;;;;;;;;;;;;;;;23.62;44.29;101607.50;5061415;28;19971;-61
2022/07/13 07:58:11;;;;;;;;;;;;;;;23.65;43.98;101605.38;5068741;28;19950;-63
2022/07/13 08:00:37;;;;;;;;;;;;;;;23.70;44.10;101605.72;5063506;28;20368;-63
2022/07/13 08:03:03;;;;;;;;;;;;;;;23.77;43.82;101603.25;5067345;28;19956;-61
2022/07/13 08:05:30;;;;;;;;;;;;;;;23.83;43.79;101586.53;5068783;28;20350;-60
2022/07/13 08:07:56;;;;;;;;;;;;;;;23.86;43.53;101593.44;5071138;28;19916;-63
2022/07/13 08:10:21;;;;;;;;;;;;;;;23.89;43.65;101598.50;5069206;28;19916;-62
2022/07/13 08:12:46;;;;;;;;;;;;;;;23.93;43.53;101601.72;5069412;28;19970;-62
2022/07/13 08:15:11;;;;;;;;;;;;;;;23.95;43.66;101592.50;5076747;28;20230;-62
2022/07/13 08:17:38;;;;;;;;;;;;;;;24.04;43.51;101599.66;5080177;28;19973;-63
2022/07/13 08:20:04;;;;;;;;;;;;;;;24.09;43.58;101601.03;5070962;28;19916;-62
2022/07/13 08:22:29;;;;;;;;;;;;;;;24.12;43.31;101603.41;5069161;28;19946;-62
2022/07/13 08:24:55;;;;;;;;;;;;;;;24.15;43.45;101600.41;5070553;28;19920;-63
2022/07/13 08:27:20;;;;;;;;;;;;;;;24.15;43.38;101592.31;5069062;28;20379;-61
2022/07/13 08:29:46;;;;;;;;;;;;;;;24.18;43.50;101594.72;5072871;28;20294;-62
2022/07/13 08:32:11;;;;;;;;;;;;;;;24.20;43.44;101598.91;5065426;28;19916;-62
2022/07/13 08:40:08;;;;;;;;;;;;;;;24.45;43.42;101592.84;5072418;28;19932;-61
2022/07/13 08:42:34;;;;;;;;;;;;;;;24.54;43.28;101599.13;5061916;28;20291;-63
2022/07/13 08:44:59;;;;;;;;;;;;;;;24.59;43.34;101589.56;5076644;28;19921;-62
2022/07/13 08:47:28;;;;;;;;;;;;;;;24.68;43.33;101597.69;5068357;28;19920;-63
2022/07/13 08:49:57;;;;;;;;;;;;;;;24.72;43.00;101591.84;5066177;28;19962;-62
2022/07/13 08:52:23;;;;;;;;;;;;;;;24.75;42.99;101585.28;5062487;28;19987;-62
2022/07/13 08:54:48;;;;;;;;;;;;;;;24.77;43.18;101589.53;5067972;28;20363;-63
2022/07/13 08:57:17;;;;;;;;;;;;;;;24.81;43.21;101590.03;5067236;28;20387;-62
2022/07/13 08:59:42;;;;;;;;;;;;;;;24.87;43.13;101577.75;5066321;28;19929;-62
2022/07/13 09:02:08;;;;;;;;;;;;;;;24.89;42.99;101581.97;5067669;28;19924;-63
2022/07/13 09:04:34;;;;;;;;;;;;;;;24.93;43.03;101585.19;5065602;28;19943;-63
2022/07/13 09:06:59;;;;;;;;;;;;;;;24.98;43.05;101584.69;5070065;28;19928;-62
2022/07/13 09:09:26;;;;;;;;;;;;;;;24.99;42.97;101589.91;5070048;28;19959;-63
2022/07/13 09:11:52;;;;;;;;;;;;;;;25.02;43.02;101575.31;5068640;28;19923;-64
2022/07/13 09:14:26;;;;;;;;;;;;;;;25.07;43.05;101578.31;5069481;28;20529;-60
2022/07/13 09:16:52;;;;;;;;;;;;;;;25.11;42.95;101575.13;5071387;28;20391;-63
2022/07/13 09:19:17;;;;;;;;;;;;;;;25.16;43.01;101571.13;5069717;28;19947;-63
2022/07/13 09:21:43;;;;;;;;;;;;;;;25.17;42.96;101573.66;5072183;28;19955;-61
2022/07/13 09:24:08;;;;;;;;;;;;;;;25.19;42.98;101570.78;5066148;28;20007;-60
2022/07/13 09:26:40;;;;;;;;;;;;;;;25.24;42.96;101568.44;5066898;28;19917;-61
2022/07/13 09:29:05;;;;;;;;;;;;;;;25.27;42.89;101574.34;5067461;28;20003;-60
2022/07/13 09:31:31;;;;;;;;;;;;;;;25.30;43.04;101557.00;5072027;28;20054;-62
2022/07/13 09:33:56;;;;;;;;;;;;;;;25.34;43.01;101569.13;5066244;28;19924;-61
2022/07/13 09:36:23;;;;;;;;;;;;;;;25.41;42.97;101561.22;5062615;28;19921;-63
2022/07/13 09:38:51;;;;;;;;;;;;;;;25.46;42.87;101561.59;5059645;28;19958;-64
2022/07/13 09:41:17;;;;;;;;;;;;;;;25.51;42.88;101555.72;5050739;28;19928;-64
2022/07/13 09:46:50;;;;;;;;;;;;;;;25.58;42.77;101555.88;5073926;28;19924;-61
2022/07/13 09:49:16;;;;;;;;;;;;;;;25.56;42.72;101556.88;5068886;28;20007;-62
2022/07/13 09:51:44;;;;;;;;;;;;;;;25.60;42.65;101554.69;5060182;28;20015;-61
2022/07/13 09:54:09;;;;;;;;;;;;;;;25.62;42.66;101549.16;5063364;28;19962;-62
2022/07/13 09:56:35;;;;;;;;;;;;;;;25.63;42.72;101550.84;5067419;28;19917;-62
2022/07/13 09:59:04;;;;;;;;;;;;;;;25.66;42.70;101539.69;5068515;28;20288;-62
2022/07/13 10:01:30;;;;;;;;;;;;;;;25.67;42.42;101539.53;5057674;28;20593;-62
2022/07/13 10:03:56;;;;;;;;;;;;;;;25.71;42.32;101542.72;5062627;28;20407;-62
2022/07/13 10:06:21;;;;;;;;;;;;;;;25.75;42.45;101541.38;5066584;28;20323;-62
2022/07/13 10:08:48;;;;;;;;;;;;;;;25.78;41.97;101541.06;5058164;28;20320;-62
2022/07/13 10:11:13;;;;;;;;;;;;;;;25.76;42.13;101535.00;5064995;28;19936;-59
2022/07/13 10:13:38;;;;;;;;;;;;;;;25.79;42.38;101540.00;5068967;28;20023;-61
2022/07/13 10:16:04;;;;;;;;;;;;;;;25.82;42.19;101539.69;5066758;28;19916;-62
2022/07/13 10:18:31;;;;;;;;;;;;;;;25.86;42.04;101534.81;5062359;28;19913;-61
2022/07/13 10:21:12;;;;;;;;;;;;;;;25.90;41.80;101540.69;5066492;28;19921;-59
2022/07/13 10:23:38;;;;;;;;;;;;;;;25.93;42.05;101534.97;5068554;28;19917;-62
2022/07/13 10:26:04;;;;;;;;;;;;;;;25.96;41.83;101535.47;5053146;28;19920;-61
2022/07/13 10:28:29;;;;;;;;;;;;;;;25.99;41.88;101529.72;5065890;28;20391;-60
2022/07/13 10:30:54;;;;;;;;;;;;;;;26.01;41.96;101532.25;5063253;28;20400;-63
2022/07/13 10:33:21;;;;;;;;;;;;;;;26.03;41.75;101522.13;5062431;28;19931;-62
2022/07/13 10:35:47;;;;;;;;;;;;;;;26.02;41.77;101529.38;5061032;28;19929;-62
2022/07/13 10:38:17;;;;;;;;;;;;;;;26.04;41.57;101521.13;5067619;28;19928;-62
2022/07/13 10:40:42;;;;;;;;;;;;;;;26.07;41.87;101526.19;5063017;28;19924;-60
2022/07/13 10:43:08;;;;;;;;;;;;;;;26.12;41.39;101517.59;5059302;28;19940;-57
2022/07/13 10:45:40;;;;;;;;;;;;;;;26.18;41.43;101519.56;5054412;28;20039;-63
2022/07/13 10:48:06;;;;;;;;;;;;;;;26.25;41.40;101511.63;5060666;28;20574;-57
2022/07/13 10:50:43;;;;;;;;;;;;;;;26.30;41.10;101511.97;5060219;28;20291;-64
2022/07/13 10:53:09;;;;;;;;;;;;;;;26.36;41.22;101508.59;5063008;28;20362;-62
2022/07/13 10:55:34;;;;;;;;;;;;;;;26.40;41.10;101504.50;5068972;28;20024;-59
2022/07/13 10:58:20;;;;;;;;;;;;;;;26.41;40.85;101492.69;5067486;28;19932;-62
2022/07/13 11:00:47;;;;;;;;;;;;;;;26.41;40.85;101495.38;5065135;28;19924;-62
2022/07/13 11:03:23;;;;;;;;;;;;;;;26.41;40.80;101490.00;5069303;28;19936;-60
2022/07/13 11:06:08;;;;;;;;;;;;;;;26.45;40.59;101485.94;5065858;28;19920;-59
2022/07/13 11:08:34;;;;;;;;;;;;;;;26.46;40.57;101486.78;5067197;28;19927;-64
2022/07/13 11:11:13;;;;;;;;;;;;;;;26.52;40.23;101490.63;5072217;28;19917;-63
2022/07/13 11:13:39;;;;;;;;;;;;;;;26.59;40.56;101481.66;5071082;28;20050;-63
2022/07/13 11:16:08;;;;;;;;;;;;;;;26.65;40.15;101501.69;5071202;28;20074;-62
2022/07/13 11:18:40;;;;;;;;;;;;;;;26.66;40.29;101487.19;5072622;28;19920;-63
2022/07/13 11:21:23;;;;;;;;;;;;;;;26.71;40.13;101484.78;5063302;28;19997;-62
2022/07/13 11:26:55;;;;;;;;;;;;;;;26.78;39.95;101474.97;5066001;28;19971;-62
2022/07/13 11:29:35;;;;;;;;;;;;;;;26.86;40.10;101486.75;5061089;28;20016;-61
2022/07/13 11:32:01;;;;;;;;;;;;;;;26.92;39.85;101483.34;5071491;28;19920;-62
2022/07/13 11:34:27;;;;;;;;;;;;;;;26.98;39.73;101470.97;5071849;28;20284;-62
2022/07/13 11:36:53;;;;;;;;;;;;;;;27.05;39.82;101470.06;5057606;28;19924;-63
2022/07/13 11:39:23;;;;;;;;;;;;;;;27.10;39.42;101482.22;5068191;28;19923;-62
2022/07/13 11:41:51;;;;;;;;;;;;;;;27.12;39.28;101461.25;5058782;28;20476;-62
2022/07/13 11:44:16;;;;;;;;;;;;;;;27.15;39.30;101459.03;5070546;28;19916;-63
2022/07/13 11:46:45;;;;;;;;;;;;;;;27.18;39.39;101455.13;5060490;28;20401;-62
2022/07/13 11:49:11;;;;;;;;;;;;;;;27.24;39.35;101457.09;5067423;28;20333;-62
2022/07/13 11:51:36;;;;;;;;;;;;;;;27.30;39.26;101445.56;5069176;28;20011;-62
2022/07/13 11:54:08;;;;;;;;;;;;;;;27.34;39.08;101440.66;5069052;28;19917;-63
2022/07/13 11:56:34;;;;;;;;;;;;;;;27.34;39.00;101427.97;5074277;28;19977;-62
2022/07/13 11:58:59;;;;;;;;;;;;;;;27.38;38.96;101429.28;5063117;28;20511;-63
2022/07/13 12:01:25;;;;;;;;;;;;;;;27.43;39.04;101431.44;5062615;28;19939;-63
2022/07/13 12:03:51;;;;;;;;;;;;;;;27.47;39.15;101419.25;5065298;28;19920;-60
2022/07/13 12:06:16;;;;;;;;;;;;;;;27.51;38.71;101417.88;5066946;28;19925;-62
2022/07/13 12:08:42;;;;;;;;;;;;;;;27.58;38.37;101409.00;5071191;28;19923;-63
2022/07/13 12:11:09;;;;;;;;;;;;;;;27.64;38.21;101428.03;5066852;28;20379;-64
2022/07/13 12:13:36;;;;;;;;;;;;;;;27.74;37.55;101416.94;5066012;28;19920;-63
2022/07/13 12:16:02;;;;;;;;;;;;;;;27.83;37.33;101417.69;5076273;28;19927;-62
2022/07/13 12:18:29;;;;;;;;;;;;;;;27.89;37.05;101421.50;5071599;28;20308;-64
2022/07/13 12:20:54;;;;;;;;;;;;;;;27.86;36.56;101417.31;5064839;28;20031;-64
2022/07/13 12:23:20;;;;;;;;;;;;;;;27.84;36.68;101417.50;5070818;28;20002;-63
2022/07/13 12:25:47;;;;;;;;;;;;;;;27.84;36.58;101403.97;5070900;28;19920;-60
2022/07/13 12:28:12;;;;;;;;;;;;;;;27.82;36.55;101416.00;5070548;28;20015;-63
2022/07/13 12:30:54;;;;;;;;;;;;;;;27.82;36.21;101414.16;5067232;28;20367;-59
2022/07/13 12:33:19;;;;;;;;;;;;;;;27.82;36.10;101388.97;5071520;28;19924;-61
2022/07/13 12:35:45;;;;;;;;;;;;;;;27.89;35.73;101389.06;5069474;28;20336;-64
2022/07/13 12:38:12;;;;;;;;;;;;;;;27.93;35.64;101388.50;5076723;28;19975;-59
2022/07/13 12:40:39;;;;;;;;;;;;;;;27.96;35.62;101390.81;5064667;28;20012;-64